Time;durP1;ratioP1;P1;durP2;ratioP2;P2;SDS_P1;SDS_P2;PMS_P1;PMS_P2;Temp;Humidity;BMP_temperature;BMP_pressure;BME280_temperature;BME280_humidity;BME280_pressure;Samples;Min_cycle;Max_cycle;Signal;HPM_P1;HPM_P2
2021/04/02 00:01:14;;;;;;;11.20;10.00;;;8.60;99.90;;;6.30;100.00;100710.50;4966648;28;100164;-59
2021/04/02 00:04:58;;;;;;;11.23;9.67;;;8.50;99.90;;;6.29;100.00;100704.31;4965939;28;100500;-60
2021/04/02 00:08:32;;;;;;;11.87;9.70;;;8.50;99.90;;;6.20;100.00;100709.50;4906022;28;100668;-60
2021/04/02 00:15:44;;;;;;;12.00;9.43;;;8.40;99.90;;;6.30;100.00;100714.00;4960160;28;100310;-60
2021/04/02 00:22:28;;;;;;;12.17;10.90;;;8.40;99.90;;;6.21;100.00;100712.03;4966815;28;100124;-62
2021/04/02 00:33:11;;;;;;;16.50;12.60;;;8.30;99.90;;;6.20;100.00;100702.38;4946451;28;100266;-63
2021/04/02 00:36:29;;;;;;;13.27;10.67;;;8.30;99.90;;;6.10;100.00;100704.91;4965555;28;99981;-63
2021/04/02 00:47:43;;;;;;;10.50;7.37;;;8.20;99.90;;;5.77;100.00;100697.72;4875651;28;101194;-64
2021/04/02 00:51:00;;;;;;;10.27;7.47;;;8.10;99.90;;;5.77;100.00;100703.03;4965490;28;99980;-63
2021/04/02 00:57:55;;;;;;;9.27;7.10;;;8.00;99.90;;;5.69;100.00;100707.19;4965249;28;101218;-63
2021/04/02 01:04:32;;;;;;;8.87;6.23;;;7.90;99.90;;;5.60;100.00;100710.56;4957539;28;100019;-64
2021/04/02 01:11:36;;;;;;;9.23;6.77;;;7.80;99.90;;;5.61;100.00;100709.59;4966033;28;102881;-65
2021/04/02 01:14:12;;;;;;;10.63;6.80;;;7.80;99.90;;;5.60;100.00;100718.53;4965973;28;103085;-63
2021/04/02 01:16:38;;;;;;;7.70;6.37;;;7.80;99.90;;;5.52;100.00;100718.25;4967289;28;100216;-63
2021/04/02 01:19:15;;;;;;;9.70;7.97;;;7.80;99.90;;;5.44;100.00;100726.78;4966718;28;100093;-63
2021/04/02 01:21:47;;;;;;;10.27;7.13;;;7.80;99.90;;;5.37;100.00;100726.41;4965960;28;102822;-63
2021/04/02 01:24:34;;;;;;;8.53;6.57;;;7.70;99.90;;;5.34;100.00;100718.66;4966593;28;101273;-62
2021/04/02 01:27:14;;;;;;;9.93;6.67;;;7.70;99.90;;;5.30;100.00;100722.53;4984827;28;100575;-62
2021/04/02 01:29:47;;;;;;;10.03;5.97;;;7.70;99.90;;;5.35;100.00;100735.44;4966754;28;100258;-64
2021/04/02 01:32:18;;;;;;;8.07;5.60;;;7.60;99.90;;;5.37;100.00;100728.22;4983402;28;101733;-62
2021/04/02 01:34:49;;;;;;;7.93;5.57;;;7.60;99.90;;;5.35;100.00;100732.78;4966001;28;102603;-62
2021/04/02 01:37:25;;;;;;;7.93;5.53;;;7.60;99.90;;;5.30;100.00;100738.44;4966238;28;99968;-63
2021/04/02 01:39:53;;;;;;;8.27;5.77;;;7.50;99.90;;;5.34;100.00;100739.91;4984859;28;100319;-63
2021/04/02 01:42:22;;;;;;;6.07;5.47;;;7.50;99.90;;;5.29;100.00;100743.88;4966120;28;103200;-62
2021/04/02 01:44:52;;;;;;;6.80;5.33;;;7.50;99.90;;;5.23;100.00;100741.66;4965624;28;102430;-63
2021/04/02 01:47:21;;;;;;;5.33;4.80;;;7.50;99.90;;;5.22;100.00;100747.91;4966780;28;100348;-63
2021/04/02 01:49:50;;;;;;;6.63;4.93;;;7.50;99.90;;;5.20;100.00;100745.38;4985896;28;100245;-62
2021/04/02 01:52:17;;;;;;;7.43;5.50;;;7.40;99.90;;;5.13;100.00;100748.59;4984315;28;101068;-63
2021/04/02 01:54:53;;;;;;;5.83;5.17;;;7.40;99.90;;;5.12;100.00;100742.44;4982089;28;101400;-62
2021/04/02 01:57:23;;;;;;;6.00;5.33;;;7.40;99.90;;;5.08;100.00;100751.56;4966037;28;100023;-63
2021/04/02 01:59:55;;;;;;;6.00;5.50;;;7.40;99.90;;;4.99;100.00;100760.22;4984975;28;100144;-62
2021/04/02 02:02:23;;;;;;;6.30;5.47;;;7.40;99.90;;;4.96;100.00;100766.56;4965951;28;101338;-64
2021/04/02 02:04:51;;;;;;;5.83;5.33;;;7.30;99.90;;;4.97;100.00;100765.63;4965532;28;102019;-63
2021/04/02 02:07:24;;;;;;;7.80;5.80;;;7.30;99.90;;;4.92;100.00;100770.44;4984043;28;100204;-63
2021/04/02 02:10:04;;;;;;;5.73;4.90;;;7.30;99.90;;;4.90;100.00;100768.84;4984755;28;100143;-63
2021/04/02 02:12:38;;;;;;;6.20;5.03;;;7.30;99.90;;;4.82;100.00;100768.53;4964899;28;103211;-63
2021/04/02 02:15:18;;;;;;;5.70;5.03;;;7.20;99.90;;;4.81;100.00;100774.81;4965745;28;101037;-63
2021/04/02 02:17:54;;;;;;;6.07;4.77;;;7.20;99.90;;;4.80;100.00;100775.75;4966130;28;100609;-63
2021/04/02 02:20:23;;;;;;;5.27;4.53;;;7.10;99.90;;;4.81;100.00;100769.50;4965905;28;100155;-64
2021/04/02 02:22:53;;;;;;;6.13;4.73;;;7.10;99.90;;;4.78;100.00;100773.22;4983750;28;100903;-63
2021/04/02 02:25:26;;;;;;;6.37;4.83;;;7.10;99.90;;;4.82;100.00;100773.84;4965543;28;101270;-63
2021/04/02 02:28:01;;;;;;;5.07;4.57;;;7.10;99.90;;;4.83;100.00;100775.50;4984268;28;100113;-63
2021/04/02 02:30:31;;;;;;;4.80;4.27;;;7.10;99.90;;;4.85;100.00;100771.81;4965663;28;100266;-64
2021/04/02 02:33:08;;;;;;;4.70;4.30;;;7.10;99.90;;;4.81;100.00;100774.81;4966016;28;102599;-63
2021/04/02 02:35:42;;;;;;;4.40;4.00;;;7.10;99.90;;;4.79;100.00;100782.00;4965379;28;102268;-63
2021/04/02 02:38:10;;;;;;;6.60;4.43;;;7.10;99.90;;;4.75;100.00;100781.38;4965072;28;100154;-63
2021/04/02 02:40:38;;;;;;;6.30;5.00;;;7.10;99.90;;;4.74;100.00;100779.69;4965982;28;100491;-62
2021/04/02 02:43:06;;;;;;;6.77;5.17;;;7.10;99.90;;;4.74;100.00;100790.28;4984324;28;101451;-63
2021/04/02 02:45:36;;;;;;;7.63;6.27;;;7.10;99.90;;;4.60;100.00;100787.75;4965492;28;101978;-63
2021/04/02 02:48:06;;;;;;;8.90;6.63;;;7.10;99.90;;;4.59;100.00;100789.56;4964939;28;100293;-63
2021/04/02 02:50:41;;;;;;;10.10;6.47;;;7.00;99.90;;;4.53;100.00;100790.00;4983737;28;100420;-63
2021/04/02 02:53:10;;;;;;;9.47;7.20;;;7.00;99.90;;;4.52;100.00;100792.75;4965318;28;103367;-63
2021/04/02 02:55:41;;;;;;;7.93;6.50;;;7.00;99.90;;;4.52;100.00;100790.09;4965358;28;102452;-64
2021/04/02 02:58:14;;;;;;;10.10;7.47;;;6.90;99.90;;;4.48;100.00;100792.13;4965460;28;100484;-65
2021/04/02 03:00:50;;;;;;;9.97;7.27;;;6.90;99.90;;;4.52;100.00;100798.91;4965410;28;100780;-65
2021/04/02 03:03:19;;;;;;;10.03;7.23;;;6.90;99.90;;;4.51;100.00;100807.81;4964079;28;103321;-65
2021/04/02 03:05:51;;;;;;;8.90;6.93;;;6.80;99.90;;;4.45;100.00;100792.31;4964750;28;101030;-65
2021/04/02 03:08:25;;;;;;;7.30;6.60;;;6.80;99.90;;;4.40;100.00;100801.56;4981261;28;100394;-65
2021/04/02 03:10:55;;;;;;;8.87;7.10;;;6.90;99.90;;;4.42;100.00;100800.50;4964794;28;100321;-64
2021/04/02 03:13:24;;;;;;;11.10;7.83;;;6.90;99.90;;;4.43;100.00;100804.84;4983359;28;100861;-64
2021/04/02 03:15:58;;;;;;;9.13;6.37;;;6.80;99.90;;;4.39;100.00;100795.41;4983131;28;100673;-64
2021/04/02 03:18:26;;;;;;;8.23;7.17;;;6.80;99.90;;;4.35;100.00;100799.22;4965169;28;100288;-64
2021/04/02 03:20:55;;;;;;;10.13;8.17;;;6.80;99.90;;;4.37;100.00;100801.75;4965206;28;100302;-63
2021/04/02 03:23:29;;;;;;;9.30;7.03;;;6.80;99.90;;;4.37;100.00;100801.75;4964617;27;103170;-64
2021/04/02 03:25:57;;;;;;;8.60;7.30;;;6.80;99.90;;;4.36;100.00;100800.91;4967072;28;102403;-64
2021/04/02 03:28:25;;;;;;;9.83;7.80;;;6.80;99.90;;;4.34;100.00;100793.06;4969054;28;100377;-64
2021/04/02 03:30:56;;;;;;;7.67;6.70;;;6.80;99.90;;;4.29;100.00;100795.22;4968241;28;100208;-65
2021/04/02 03:33:32;;;;;;;8.27;6.53;;;6.80;99.90;;;4.34;100.00;100792.22;4968622;28;103756;-63
2021/04/02 03:36:14;;;;;;;9.10;6.50;;;6.80;99.90;;;4.21;100.00;100784.28;4968373;28;103500;-63
2021/04/02 03:38:45;;;;;;;8.83;6.37;;;6.80;99.90;;;4.21;100.00;100788.72;4967520;28;100107;-64
2021/04/02 03:41:23;;;;;;;8.97;6.13;;;6.80;99.90;;;4.19;100.00;100790.66;4968698;28;100280;-65
2021/04/02 03:43:51;;;;;;;9.07;6.10;;;6.70;99.90;;;4.20;100.00;100787.06;4968297;28;102830;-64
2021/04/02 03:46:21;;;;;;;10.23;6.03;;;6.70;99.90;;;4.21;100.00;100786.91;4968057;28;103382;-64
2021/04/02 03:48:53;;;;;;;9.47;6.10;;;6.70;99.90;;;4.16;100.00;100788.22;4968866;28;100577;-64
2021/04/02 03:51:24;;;;;;;10.23;5.83;;;6.70;99.90;;;4.19;100.00;100790.66;4967569;28;100576;-64
2021/04/02 03:53:55;;;;;;;8.97;6.30;;;6.70;99.90;;;4.18;100.00;100791.59;4987249;28;100850;-63
2021/04/02 03:56:27;;;;;;;7.70;6.10;;;6.70;99.90;;;4.20;100.00;100785.22;4968532;28;101732;-64
2021/04/02 03:58:56;;;;;;;6.77;5.67;;;6.60;99.90;;;4.18;100.00;100789.81;4968647;28;100050;-64
2021/04/02 04:01:32;;;;;;;6.20;5.60;;;6.60;99.90;;;4.22;100.00;100793.91;4969078;28;100021;-66
2021/04/02 04:04:02;;;;;;;9.40;5.80;;;6.60;99.90;;;4.19;100.00;100780.91;4967533;28;102805;-65
2021/04/02 04:06:36;;;;;;;6.90;5.80;;;6.60;99.90;;;4.24;100.00;100785.88;4967997;28;102273;-65
2021/04/02 04:09:12;;;;;;;7.47;5.53;;;6.60;99.90;;;4.18;100.00;100786.31;4967660;28;100108;-63
2021/04/02 04:11:46;;;;;;;7.97;5.97;;;6.70;99.90;;;4.21;100.00;100786.91;4968367;28;100356;-63
2021/04/02 04:14:20;;;;;;;7.77;5.63;;;6.70;99.90;;;4.18;100.00;100791.59;4968098;28;102672;-64
2021/04/02 04:16:52;;;;;;;6.30;5.50;;;6.70;99.90;;;4.20;100.00;100790.50;4986951;28;100917;-61
2021/04/02 04:19:22;;;;;;;7.70;5.17;;;6.70;99.90;;;4.23;100.00;100789.47;4986989;28;100056;-63
2021/04/02 04:21:53;;;;;;;6.40;5.07;;;6.70;99.90;;;4.21;100.00;100791.38;4968687;28;100688;-63
2021/04/02 04:24:25;;;;;;;8.53;5.23;;;6.70;99.90;;;4.16;100.00;100788.22;4967992;28;103117;-63
2021/04/02 04:26:54;;;;;;;7.37;5.57;;;6.70;99.90;;;4.08;100.00;100782.59;4985848;28;99997;-64
2021/04/02 04:29:29;;;;;;;6.07;4.60;;;6.70;99.90;;;4.10;100.00;100784.16;4986259;28;100515;-64
2021/04/02 04:32:05;;;;;;;6.50;4.93;;;6.70;99.90;;;4.09;100.00;100785.09;4986910;28;100168;-65
2021/04/02 04:34:32;;;;;;;7.53;5.27;;;6.70;99.90;;;4.07;100.00;100776.44;4989934;28;101374;-64
2021/04/02 04:37:01;;;;;;;6.20;4.53;;;6.70;99.90;;;4.15;100.00;100789.16;4985613;27;100390;-63
2021/04/02 04:39:28;;;;;;;7.10;5.20;;;6.70;99.90;;;4.10;100.00;100785.97;4986715;28;100224;-63
2021/04/02 04:42:00;;;;;;;7.80;5.13;;;6.70;99.90;;;4.05;100.00;100791.59;4986334;28;99820;-63
2021/04/02 04:44:28;;;;;;;8.80;5.30;;;6.70;99.90;;;4.05;100.00;100785.44;4986761;28;100832;-64
2021/04/02 04:47:05;;;;;;;7.13;5.17;;;6.70;99.90;;;4.09;100.00;100790.41;4967400;28;100485;-64
2021/04/02 04:49:32;;;;;;;5.77;5.00;;;6.60;99.90;;;4.08;100.00;100790.53;4986538;28;100106;-62
2021/04/02 04:52:00;;;;;;;7.40;5.00;;;6.60;99.90;;;4.03;100.00;100796.13;4966727;28;100035;-63
2021/04/02 04:54:29;;;;;;;6.87;4.90;;;6.60;99.90;;;4.08;100.00;100795.84;4985309;28;100919;-63
2021/04/02 04:56:59;;;;;;;8.70;5.53;;;6.60;99.90;;;4.08;100.00;100801.13;4966502;28;102999;-62
2021/04/02 04:59:29;;;;;;;6.27;4.90;;;6.60;99.90;;;4.07;100.00;100788.84;4986466;28;100610;-62
2021/04/02 05:01:56;;;;;;;6.93;5.17;;;6.60;99.90;;;4.07;100.00;100791.50;4966858;28;100110;-63
2021/04/02 05:04:34;;;;;;;8.10;4.97;;;6.60;99.90;;;4.02;100.00;100790.94;4985799;28;101494;-62
2021/04/02 05:07:02;;;;;;;7.40;5.73;;;6.60;99.90;;;3.98;100.00;100790.28;4986328;28;100433;-62
2021/04/02 05:09:31;;;;;;;7.57;5.40;;;6.60;99.90;;;3.94;100.00;100792.31;4985461;28;100260;-62
2021/04/02 05:11:59;;;;;;;7.87;6.03;;;6.60;99.90;;;3.99;100.00;100792.00;4985847;28;100414;-62
2021/04/02 05:14:26;;;;;;;8.93;5.67;;;6.60;99.90;;;4.01;100.00;100791.88;4966774;28;103518;-62
2021/04/02 05:16:55;;;;;;;9.60;6.17;;;6.60;99.90;;;3.93;100.00;100797.72;4985235;28;100337;-62
2021/04/02 05:19:22;;;;;;;8.70;5.80;;;6.60;99.90;;;4.01;100.00;100791.88;4985177;28;100225;-63
2021/04/02 05:21:49;;;;;;;7.40;6.00;;;6.60;99.90;;;3.92;100.00;100796.03;4985215;28;100003;-62
2021/04/02 05:24:52;;;;;;;10.63;5.60;;;6.60;99.90;;;3.93;100.00;100790.63;4985306;28;100879;-62
2021/04/02 05:31:29;;;;;;;8.60;6.33;;;6.60;99.90;;;4.07;100.00;100797.63;4964328;28;100042;-63
2021/04/02 05:35:10;;;;;;;9.53;6.30;;;6.60;99.90;;;4.00;100.00;100792.84;4974876;28;100237;-63
2021/04/02 05:48:58;;;;;;;10.93;7.87;;;6.60;99.90;;;3.96;100.00;100789.53;4954641;28;100530;-62
2021/04/02 05:52:10;;;;;;;13.93;9.80;;;6.60;99.90;;;4.05;100.00;100793.38;4981897;28;100625;-63
2021/04/02 06:02:42;;;;;;;18.60;12.40;;;6.60;99.90;;;4.04;100.00;100789.88;4961108;28;100072;-62
2021/04/02 06:06:17;;;;;;;23.27;14.00;;;6.60;99.90;;;4.08;100.00;100787.88;4966593;28;100567;-64
2021/04/02 06:09:29;;;;;;;22.00;14.53;;;6.60;99.90;;;4.04;100.00;100794.34;4980875;28;100539;-63
2021/04/02 06:12:53;;;;;;;24.10;14.63;;;6.60;99.90;;;4.11;100.00;100791.16;4944361;28;100397;-63
2021/04/02 06:16:04;;;;;;;22.30;14.10;;;6.60;99.90;;;4.12;100.00;100790.22;4977002;28;100055;-62
2021/04/02 06:19:22;;;;;;;19.20;13.07;;;6.60;99.90;;;3.88;100.00;100791.88;4981085;28;99944;-63
2021/04/02 06:25:52;;;;;;;20.13;13.47;;;6.60;99.90;;;3.97;100.00;100802.69;4979924;28;102407;-62
2021/04/02 06:29:16;;;;;;;19.00;12.77;;;6.60;99.90;;;3.98;100.00;100801.72;4980497;28;100033;-62
2021/04/02 06:32:36;;;;;;;20.80;13.23;;;6.60;99.90;;;4.10;100.00;100792.09;4962539;28;101460;-63
2021/04/02 06:35:53;;;;;;;20.30;12.03;;;6.60;99.90;;;4.10;100.00;100793.91;4981728;28;101005;-60
2021/04/02 06:39:16;;;;;;;20.27;11.97;;;6.60;99.90;;;4.16;100.00;100804.94;4963045;28;100327;-62
2021/04/02 06:42:33;;;;;;;17.27;11.97;;;6.60;99.90;;;4.11;100.00;100804.41;4980824;28;100275;-62
2021/04/02 06:45:57;;;;;;;19.47;11.03;;;6.60;99.90;;;4.19;100.00;100802.09;4981513;28;100137;-61
2021/04/02 06:49:18;;;;;;;19.30;10.67;;;6.60;99.90;;;4.25;100.00;100812.25;4977935;28;100304;-62
2021/04/02 06:52:30;;;;;;;19.40;11.50;;;6.70;99.90;;;4.25;100.00;100812.25;4974409;28;100309;-62
2021/04/02 06:55:55;;;;;;;20.13;11.93;;;6.70;99.90;;;4.23;100.00;100811.50;4981867;28;100331;-61
2021/04/02 06:59:08;;;;;;;18.50;11.90;;;6.70;99.90;;;4.24;100.00;100815.00;4981246;27;100586;-61
2021/04/02 07:02:23;;;;;;;21.03;12.47;;;6.70;99.90;;;4.30;100.00;100819.91;4976835;28;100511;-63
2021/04/02 07:05:35;;;;;;;21.83;13.03;;;6.80;99.90;;;4.44;100.00;100816.31;4980171;28;100172;-62
2021/04/02 07:08:48;;;;;;;17.43;10.80;;;6.90;99.90;;;4.18;100.00;100821.59;4984319;28;99967;-61
2021/04/02 07:12:00;;;;;;;16.57;11.10;;;6.90;99.90;;;4.19;100.00;100831.22;4982900;28;100995;-62
2021/04/02 07:15:13;;;;;;;19.80;11.87;;;6.90;99.90;;;4.25;100.00;100828.16;4983892;28;100382;-61
2021/04/02 07:22:46;;;;;;;19.47;11.33;;;6.90;99.90;;;4.31;100.00;100827.75;4899940;28;100432;-62
2021/04/02 07:25:58;;;;;;;19.67;12.23;;;6.90;99.90;;;4.24;100.00;100831.75;4983301;28;101665;-61
2021/04/02 07:32:28;;;;;;;20.70;12.23;;;6.90;99.90;;;4.25;100.00;100829.94;4980184;28;100668;-62
2021/04/02 07:35:44;;;;;;;24.93;13.30;;;6.90;99.90;;;4.40;100.00;100828.06;4977604;28;100228;-62
2021/04/02 07:38:59;;;;;;;17.37;10.67;;;6.90;99.90;;;4.10;100.00;100820.38;4981513;28;100999;-60
2021/04/02 07:42:14;;;;;;;16.10;10.43;;;6.90;99.90;;;4.29;100.00;100816.41;4984348;28;101023;-62
2021/04/02 07:45:29;;;;;;;18.37;11.07;;;7.00;99.90;;;4.30;100.00;100818.09;4984252;28;100186;-62
2021/04/02 07:48:53;;;;;;;17.17;10.93;;;7.00;99.90;;;4.22;100.00;100816.91;4970540;28;100331;-62
2021/04/02 07:52:10;;;;;;;17.37;11.47;;;7.00;99.90;;;4.27;100.00;100833.34;4977867;28;99959;-62
2021/04/02 07:55:37;;;;;;;15.30;10.77;;;7.00;99.90;;;4.41;100.00;100820.00;4992842;28;99946;-62
2021/04/02 07:59:04;;;;;;;17.83;12.23;;;7.00;99.90;;;4.60;100.00;100836.31;4983759;28;100102;-61
2021/04/02 08:02:23;;;;;;;15.90;10.03;;;7.10;99.90;;;4.50;100.00;100832.59;4984294;28;99959;-61
2021/04/02 08:05:41;;;;;;;19.57;11.27;;;7.10;99.90;;;4.53;100.00;100836.84;4974026;28;100223;-62
2021/04/02 08:09:07;;;;;;;16.17;10.47;;;7.20;99.90;;;4.48;100.00;100836.31;4983920;28;100908;-60
2021/04/02 08:12:26;;;;;;;15.80;9.50;;;7.20;99.90;;;4.29;100.00;100829.66;4976678;28;100257;-61
2021/04/02 08:15:38;;;;;;;17.87;10.03;;;7.20;99.90;;;4.53;100.00;100832.41;4981438;28;100148;-61
2021/04/02 08:18:53;;;;;;;17.50;10.27;;;7.20;99.90;;;4.61;100.00;100832.72;4976901;28;100135;-60
2021/04/02 08:22:06;;;;;;;15.37;10.03;;;7.20;99.90;;;4.60;100.00;100838.13;4991666;28;100276;-61
2021/04/02 08:25:18;;;;;;;12.57;9.20;;;7.20;99.90;;;4.67;100.00;100842.91;5032721;28;48798;-61
2021/04/02 08:28:32;;;;;;;15.83;10.13;;;7.30;99.90;;;4.75;100.00;100845.00;4974903;28;99944;-60
2021/04/02 08:31:53;;;;;;;16.67;9.87;;;7.30;99.90;;;4.84;100.00;100848.81;5029121;28;99627;-60
2021/04/02 08:35:05;;;;;;;13.47;8.27;;;7.40;99.90;;;4.84;100.00;100841.69;5035774;28;83170;-61
2021/04/02 08:38:24;;;;;;;14.40;8.77;;;7.50;99.90;;;4.95;100.00;100844.44;4984016;28;100270;-59
2021/04/02 08:41:49;;;;;;;13.47;8.73;;;7.60;99.90;;;4.96;100.00;100850.59;4983156;28;100490;-58
2021/04/02 08:45:14;;;;;;;13.60;8.30;;;7.70;99.90;;;4.94;100.00;100845.41;4979262;28;100455;-61
2021/04/02 08:48:29;;;;;;;10.73;7.70;;;7.70;99.90;;;5.10;100.00;100847.81;4985970;28;100065;-60
2021/04/02 08:52:03;;;;;;;13.23;9.10;;;7.80;99.90;;;5.05;100.00;100845.50;4985205;28;100054;-60
2021/04/02 08:55:19;;;;;;;10.07;8.47;;;7.90;99.90;;;5.02;100.00;100842.22;4984565;28;101548;-62
2021/04/02 08:59:00;;;;;;;13.90;8.43;;;7.90;99.90;;;5.16;100.00;100846.53;4978012;28;100937;-60
2021/04/02 09:02:25;;;;;;;11.57;8.07;;;7.90;99.90;;;5.27;100.00;100851.91;4966080;28;99192;-60
2021/04/02 09:09:10;;;;;;;13.83;8.27;;;8.00;99.90;;;5.27;100.00;100842.16;4970935;28;96058;-61
2021/04/02 09:12:28;;;;;;;12.43;8.03;;;8.10;99.90;;;5.23;100.00;100834.50;5001988;28;96388;-61
2021/04/02 09:16:03;;;;;;;11.27;7.80;;;8.20;99.90;;;5.38;100.00;100830.75;4983288;28;97973;-61
2021/04/02 09:19:31;;;;;;;9.80;7.47;;;8.20;99.90;;;5.59;100.00;100823.00;4997393;28;99928;-61
2021/04/02 09:22:43;;;;;;;10.83;6.90;;;8.30;99.90;;;5.65;100.00;100826.06;4996211;28;99326;-62
2021/04/02 09:25:59;;;;;;;12.50;7.20;;;8.40;99.90;;;5.60;100.00;100824.72;5004217;28;91254;-60
2021/04/02 09:29:23;;;;;;;7.47;6.10;;;8.40;99.90;;;5.17;100.00;100827.84;4996354;28;99242;-61
2021/04/02 09:32:35;;;;;;;10.53;6.30;;;8.40;99.90;;;5.37;100.00;100827.25;4976713;28;99222;-58
2021/04/02 09:35:48;;;;;;;11.60;6.83;;;8.40;99.90;;;5.41;100.00;100820.78;4999467;28;97555;-58
2021/04/02 09:39:00;;;;;;;7.83;5.97;;;8.40;99.90;;;5.26;100.00;100818.38;5002471;28;99099;-60
2021/04/02 09:42:13;;;;;;;8.63;6.27;;;8.40;99.90;;;5.25;100.00;100819.34;4981457;28;96583;-60
2021/04/02 09:45:35;;;;;;;8.40;5.90;;;8.40;99.90;;;5.35;100.00;100815.03;4965121;28;98859;-61
2021/04/02 09:48:55;;;;;;;10.77;7.90;;;8.30;99.90;;;5.45;100.00;100817.88;4991068;28;99807;-60
2021/04/02 09:52:13;;;;;;;10.17;7.53;;;8.30;99.90;;;5.75;100.00;100811.16;4993489;28;98098;-60
2021/04/02 09:55:31;;;;;;;8.33;6.77;;;8.30;99.90;;;5.51;100.00;100817.44;4995244;28;99851;-61
2021/04/02 09:59:04;;;;;;;11.10;6.77;;;8.40;99.90;;;5.44;100.00;100818.84;4997332;28;98206;-59
2021/04/02 10:02:34;;;;;;;12.17;5.97;;;8.40;99.90;;;5.49;100.00;100800.78;4907720;28;99929;-61
2021/04/02 10:05:45;;;;;;;8.53;6.20;;;8.40;99.90;;;5.39;100.00;100804.09;4889161;28;99208;-60
2021/04/02 10:08:58;;;;;;;8.27;6.10;;;8.30;99.90;;;5.40;100.00;100797.84;4913515;28;99578;-60
2021/04/02 10:12:09;;;;;;;8.60;6.67;;;8.40;99.90;;;5.29;100.00;100796.94;4987739;28;98738;-62
2021/04/02 10:15:21;;;;;;;7.53;5.77;;;8.30;99.90;;;5.56;100.00;100781.63;5000871;28;91226;-60
2021/04/02 10:19:01;;;;;;;11.70;6.67;;;8.40;99.90;;;5.46;100.00;100787.72;4995687;28;99836;-60
2021/04/02 10:25:49;;;;;;;8.57;6.67;;;8.30;99.90;;;5.70;100.00;100781.44;4981196;28;100305;-61
2021/04/02 10:29:01;;;;;;;9.30;6.27;;;8.30;99.90;;;5.97;100.00;100777.69;4995667;28;99682;-61
2021/04/02 10:32:12;;;;;;;10.70;7.07;;;8.40;99.90;;;5.93;100.00;100781.56;4969484;28;100188;-61
2021/04/02 10:35:26;;;;;;;10.37;6.53;;;8.50;99.90;;;6.03;100.00;100771.91;4980289;28;99886;-60
2021/04/02 10:38:39;;;;;;;9.03;7.03;;;8.60;99.90;;;5.99;100.00;100766.00;4983465;28;99865;-60
2021/04/02 10:41:51;;;;;;;8.83;6.33;;;8.70;99.90;;;6.13;100.00;100756.97;4983158;28;100019;-60
2021/04/02 10:45:02;;;;;;;7.80;5.97;;;8.90;99.90;;;6.14;100.00;100756.00;4973667;28;99763;-61
2021/04/02 10:48:14;;;;;;;7.10;5.33;;;9.00;99.90;;;6.28;100.00;100761.09;4991998;28;100088;-62
2021/04/02 10:51:25;;;;;;;7.07;5.67;;;9.00;99.90;;;6.30;100.00;100766.28;4998795;28;99719;-61
2021/04/02 10:54:36;;;;;;;6.07;5.47;;;9.10;99.90;;;6.56;100.00;100756.25;5017805;28;93932;-60
2021/04/02 10:57:49;;;;;;;7.30;5.30;;;9.20;99.90;;;6.60;100.00;100753.25;5006475;28;99724;-60
2021/04/02 11:01:00;;;;;;;4.97;4.50;;;9.40;99.90;;;6.33;100.00;100753.59;4984718;28;100315;-61
2021/04/02 11:04:11;;;;;;;5.83;5.10;;;9.60;99.90;;;6.44;100.00;100753.59;4983144;28;99909;-61
2021/04/02 11:07:29;;;;;;;5.53;4.80;;;9.70;99.90;;;6.74;100.00;100745.03;4986622;28;99942;-61
2021/04/02 11:10:41;;;;;;;6.53;4.87;;;9.90;99.90;;;6.68;100.00;100732.19;4987634;28;100012;-63
2021/04/02 11:18:01;;;;;;;6.70;5.20;;;10.00;99.90;;;6.74;100.00;100736.19;5001438;28;71060;-62
2021/04/02 11:21:12;;;;;;;5.73;4.97;;;10.00;99.90;;;6.58;100.00;100733.06;5006411;28;99517;-62
2021/04/02 11:24:24;;;;;;;5.43;4.93;;;10.00;99.90;;;6.64;100.00;100735.25;5003470;28;99626;-62
2021/04/02 11:27:36;;;;;;;4.87;4.40;;;10.00;99.90;;;6.66;100.00;100730.66;5020217;28;97359;-62
2021/04/02 11:30:48;;;;;;;3.80;3.50;;;10.00;99.90;;;6.62;100.00;100726.53;4995192;28;100065;-61
2021/04/02 11:34:00;;;;;;;6.07;4.17;;;10.10;98.60;;;6.90;100.00;100723.38;4986891;28;99745;-60
2021/04/02 11:37:12;;;;;;;4.90;4.07;;;10.20;98.10;;;6.89;100.00;100716.34;4992397;28;97567;-62
2021/04/02 11:40:24;;;;;;;3.30;2.83;;;10.30;97.20;;;6.90;100.00;100714.53;4991513;28;99815;-62
2021/04/02 11:43:35;;;;;;;3.63;3.30;;;10.40;96.10;;;7.16;100.00;100708.78;5011819;28;92672;-62
2021/04/02 11:46:46;;;;;;;4.73;3.17;;;10.30;96.10;;;7.07;100.00;100709.50;4975289;28;94995;-60
2021/04/02 11:49:59;;;;;;;4.27;3.80;;;10.30;96.10;;;7.08;100.00;100715.69;4983349;28;84793;-58
2021/04/02 11:53:10;;;;;;;4.80;3.83;;;10.30;96.80;;;7.00;100.00;100708.34;4994527;28;100572;-61
2021/04/02 11:56:21;;;;;;;4.43;4.03;;;10.30;96.80;;;6.90;100.00;100706.56;4981067;28;99606;-61
2021/04/02 11:59:33;;;;;;;5.43;4.10;;;10.30;97.00;;;7.03;100.00;100707.25;4990055;28;100371;-62
2021/04/02 12:03:05;;;;;;;5.63;4.10;;;10.30;97.60;;;7.04;100.00;100700.97;4993154;28;98898;-60
2021/04/02 12:06:17;;;;;;;4.87;4.07;;;10.30;97.70;;;6.95;100.00;100694.56;4992738;28;99568;-61
2021/04/02 12:09:28;;;;;;;6.27;4.63;;;10.20;97.30;;;6.99;100.00;100701.31;4992012;28;99294;-62
2021/04/02 12:15:58;;;;;;;4.97;3.80;;;10.20;97.80;;;7.00;100.00;100692.38;5004783;28;96684;-60
2021/04/02 12:22:35;;;;;;;3.73;3.17;;;10.40;97.60;;;7.31;100.00;100690.69;4987624;28;99462;-61
2021/04/02 12:25:58;;;;;;;3.03;2.70;;;10.70;94.80;;;7.47;100.00;100682.25;4990869;28;100148;-61
2021/04/02 12:29:09;;;;;;;2.97;2.67;;;10.90;93.70;;;7.57;100.00;100678.69;4981482;28;99917;-60
2021/04/02 12:32:20;;;;;;;3.20;2.90;;;11.30;91.70;;;7.96;100.00;100672.78;4986871;28;99095;-61
2021/04/02 12:38:59;;;;;;;3.47;2.50;;;12.00;90.50;;;8.41;100.00;100652.78;4987378;28;100487;-61
2021/04/02 12:42:10;;;;;;;3.10;2.80;;;12.60;86.30;;;8.53;100.00;100645.56;4981800;28;98984;-61
2021/04/02 12:45:22;;;;;;;3.47;3.17;;;12.90;81.20;;;8.16;100.00;100640.75;4975634;28;96075;-60
2021/04/02 12:48:33;;;;;;;5.97;3.10;;;13.10;78.30;;;8.44;100.00;100631.19;4998249;28;94362;-61
2021/04/02 12:55:20;;;;;;;2.97;2.40;;;13.40;77.10;;;8.45;100.00;100616.03;5007025;28;92357;-61
2021/04/02 12:58:32;;;;;;;2.67;2.40;;;13.50;73.00;;;8.68;100.00;100606.81;5003786;27;91785;-62
2021/04/02 13:01:55;;;;;;;5.17;2.60;;;13.60;71.40;;;8.42;100.00;100601.16;5024720;28;75528;-61
2021/04/02 13:05:19;;;;;;;4.13;3.37;;;13.70;69.30;;;8.49;100.00;100596.97;5028302;28;73895;-61
2021/04/02 13:08:30;;;;;;;2.93;2.63;;;13.50;69.20;;;8.79;100.00;100588.00;5024771;28;82202;-61
2021/04/02 13:11:48;;;;;;;3.20;2.90;;;13.60;69.20;;;8.50;100.00;100595.16;5009908;28;96361;-62
2021/04/02 13:15:00;;;;;;;3.17;2.90;;;13.70;66.10;;;8.74;100.00;100582.25;5006671;28;97361;-61
2021/04/02 13:18:11;;;;;;;3.90;2.80;;;13.80;66.40;;;9.31;100.00;100575.22;4995342;28;95461;-63
2021/04/02 13:24:48;;;;;;;3.20;2.90;;;14.40;66.90;;;9.16;100.00;100568.63;5024521;28;75201;-62
2021/04/02 13:28:06;;;;;;;3.47;3.10;;;14.90;62.60;;;9.29;100.00;100572.69;5001726;28;99063;-62
2021/04/02 13:31:17;;;;;;;6.63;4.87;;;14.80;60.90;;;9.33;100.00;100560.75;4986898;28;99930;-61
2021/04/02 13:34:28;;;;;;;3.50;3.20;;;14.90;61.60;;;9.44;100.00;100551.72;4978715;28;100333;-62
2021/04/02 13:37:54;;;;;;;3.20;3.00;;;14.90;60.60;;;9.22;100.00;100560.06;4975667;28;99931;-62
2021/04/02 13:41:05;;;;;;;3.43;2.57;;;14.90;59.40;;;10.09;100.00;100566.81;4988753;28;100143;-60
2021/04/02 13:47:34;;;;;;;5.00;3.93;;;15.00;60.10;;;9.77;100.00;100554.88;4977861;28;99754;-61
2021/04/02 13:50:58;;;;;;;3.37;3.07;;;15.10;59.50;;;9.76;100.00;100551.34;4999175;28;99374;-61
2021/04/02 13:58:25;;;;;;;3.33;3.03;;;15.30;59.70;;;10.20;100.00;100539.06;5021442;28;83259;-62
2021/04/02 14:01:49;;;;;;;3.92;3.50;;;15.60;59.20;;;9.83;100.00;100533.72;5027907;28;86511;-62